METAR Data
IDs: Format: Raw Decoded Include TAF

Data at: 1402 UTC 22 Apr 2021

KPCM 221355Z AUTO 04010KT 10SM CLR 19/11 A3014 RMK AO2
KPCM 221335Z AUTO 05007G15KT 015V075 10SM CLR 18/11 A3014 RMK AO2
KPCM 221315Z AUTO 03007KT 10SM CLR 18/11 A3014 RMK AO2
KPCM 221255Z AUTO 01010KT 10SM CLR 17/11 A3014 RMK AO2
KPCM 221235Z AUTO 02007KT 10SM CLR 17/12 A3013 RMK AO2
KPCM 221215Z AUTO 02006KT 10SM CLR 16/12 A3012 RMK AO2
KPCM 221155Z AUTO 02006KT 10SM CLR 16/12 A3012 RMK AO2
KPCM 221135Z AUTO 02004KT 10SM CLR 15/13 A3012 RMK AO2
KPCM 221115Z AUTO 02003KT 10SM CLR 15/13 A3011 RMK AO2
KPCM 221055Z AUTO 02003KT 10SM CLR 15/13 A3011 RMK AO2
KPCM 221035Z AUTO 01003KT 10SM CLR 16/13 A3010 RMK AO2
KPCM 221015Z AUTO 01003KT 10SM CLR 16/13 A3009 RMK AO2
KPCM 220955Z AUTO 03003KT 10SM CLR 16/13 A3009 RMK AO2
KPCM 220935Z AUTO 02004KT 10SM CLR 16/14 A3008 RMK AO2
KPCM 220915Z AUTO 02003KT 10SM CLR 17/14 A3007 RMK AO2
KPCM 220855Z AUTO 01003KT 10SM CLR 17/14 A3007 RMK AO2
KPCM 220835Z AUTO 35004KT 10SM CLR 17/15 A3006 RMK AO2
KPCM 220815Z AUTO 32003KT 10SM CLR 17/16 A3004 RMK AO2
KPCM 220755Z AUTO 33003KT 10SM CLR 17/16 A3003 RMK AO2
KPCM 220735Z AUTO 32003KT 10SM CLR 17/15 A3002 RMK AO2
KPCM 220715Z AUTO 32003KT 10SM CLR 18/15 A3003 RMK AO2
KPCM 220655Z AUTO 31003KT 10SM CLR 17/15 A3004 RMK AO2
KPCM 220635Z AUTO 29003KT 10SM CLR 18/15 A3003 RMK AO2
KPCM 220615Z AUTO 31004KT 10SM CLR 18/15 A3003 RMK AO2
KPCM 220555Z AUTO 31003KT 10SM CLR 18/15 A3004 RMK AO2
KPCM 220535Z AUTO 31005KT 10SM CLR 18/15 A3004 RMK AO2
KPCM 220515Z AUTO 31003KT 10SM CLR 18/15 A3005 RMK AO2
KPCM 220455Z AUTO 32003KT 10SM CLR 18/15 A3006 RMK AO2
KPCM 220435Z AUTO 31005KT 10SM CLR 19/15 A3007 RMK AO2
KPCM 220415Z AUTO 31003KT 10SM CLR 19/14 A3007 RMK AO2
KPCM 220355Z AUTO 00000KT 10SM CLR 18/14 A3007 RMK AO2
KPCM 220335Z AUTO 25003KT 10SM CLR 18/14 A3007 RMK AO2
KPCM 220315Z AUTO 00000KT 10SM CLR 19/14 A3007 RMK AO2
KPCM 220255Z AUTO 24003KT 10SM CLR 19/14 A3007 RMK AO2
KPCM 220235Z AUTO 26005KT 10SM CLR 20/13 A3006 RMK AO2
KPCM 220215Z AUTO 31004KT 10SM CLR 20/13 A3005 RMK AO2
KPCM 220155Z AUTO 30004KT 10SM CLR 21/13 A3005 RMK AO2
KPCM 220135Z AUTO 30004KT 10SM CLR 21/13 A3004 RMK AO2
KPCM 220115Z AUTO 30004KT 10SM CLR 21/13 A3004 RMK AO2
KPCM 220055Z AUTO 29005KT 10SM CLR 22/12 A3003 RMK AO2
KPCM 220035Z AUTO 30005KT 10SM CLR 22/12 A3004 RMK AO2
KPCM 220015Z AUTO 30004KT 10SM CLR 23/12 A3004 RMK AO2
KPCM 212355Z AUTO 30004KT 10SM CLR 24/11 A3003 RMK AO2
KPCM 212335Z AUTO 29006KT 10SM CLR 25/11 A3003 RMK AO2
KPCM 212315Z AUTO 29007KT 10SM CLR 26/11 A3002 RMK AO2
KPCM 212255Z AUTO 30006KT 10SM CLR 26/11 A3002 RMK AO2
KPCM 212235Z AUTO 30010KT 10SM CLR 27/11 A3001 RMK AO2
KPCM 212215Z AUTO 31009KT 10SM CLR 27/12 A3000 RMK AO2
KPCM 212155Z AUTO 30009KT 10SM CLR 28/12 A3000 RMK AO2
KPCM 212135Z AUTO 31010KT 10SM CLR 29/13 A2999 RMK AO2
KPCM 212115Z AUTO 31007KT 10SM CLR 29/12 A2999 RMK AO2
KPCM 212055Z AUTO 30010G14KT 10SM CLR 29/11 A2999 RMK AO2
KPCM 212035Z AUTO 33007KT 10SM CLR 29/12 A2999 RMK AO2
KPCM 212015Z AUTO 31009KT 10SM CLR 29/13 A2999 RMK AO2
KPCM 211955Z AUTO 30007KT 10SM CLR 29/12 A2999 RMK AO2
KPCM 211935Z AUTO 31005KT 10SM CLR 29/12 A2999 RMK AO2
KPCM 211915Z AUTO 30008KT 10SM CLR 29/11 A3000 RMK AO2
KPCM 211855Z AUTO 30010KT 10SM CLR 29/12 A3001 RMK AO2
KPCM 211835Z AUTO 30008KT 10SM CLR 29/13 A3002 RMK AO2
KPCM 211815Z AUTO 29005KT 10SM CLR 29/15 A3002 RMK AO2
KPCM 211755Z AUTO 32007KT 10SM CLR 28/16 A3002 RMK AO2
KPCM 211735Z AUTO 33010KT 10SM CLR 28/16 A3003 RMK AO2
KPCM 211715Z AUTO 29007KT 10SM CLR 28/17 A3003 RMK AO2
KPCM 211655Z AUTO 35006KT 10SM CLR 27/16 A3004 RMK AO2
KPCM 211635Z AUTO 34007KT 10SM CLR 27/17 A3004 RMK AO2
KPCM 211615Z AUTO 35004KT 10SM CLR 26/16 A3005 RMK AO2
KPCM 211555Z AUTO 32007KT 10SM BKN070 26/16 A3005 RMK AO2
KPCM 211535Z AUTO 02004KT 10SM OVC070 25/17 A3005 RMK AO2
KPCM 211515Z AUTO 30004KT 10SM OVC070 25/18 A3006 RMK AO2
KPCM 211455Z AUTO 35003KT 10SM BKN070 24/18 A3005 RMK AO2
KPCM 211435Z AUTO 35004KT 10SM SCT015 SCT020 BKN070 24/18 A3004 RMK AO2
KPCM 211415Z AUTO 01007KT 10SM BKN015 BKN020 OVC070 24/19 A3004 RMK AO2
KPCM 211355Z AUTO 01006KT 10SM BKN013 OVC060 23/20 A3004 RMK AO2
KPCM 211335Z AUTO 36006KT 10SM BKN013 OVC060 23/19 A3004 RMK AO2
KPCM 211315Z AUTO 33004KT 10SM OVC013 23/20 A3004 RMK AO2
KPCM 211255Z AUTO 32004KT 10SM SCT011 OVC060 22/20 A3003 RMK AO2
KPCM 211235Z AUTO 00000KT 10SM BKN060 22/20 A3003 RMK AO2
KPCM 211215Z AUTO 32003KT 10SM CLR 22/22 A3002 RMK AO2
KPCM 211155Z AUTO 32004KT 10SM CLR 21/21 A3002 RMK AO2
KPCM 211135Z AUTO 31003KT 10SM CLR 21/21 A3001 RMK AO2
KPCM 211115Z AUTO 00000KT 10SM CLR 21/21 A3001 RMK AO2
KPCM 211055Z AUTO 31003KT 10SM CLR 21/21 A3001 RMK AO2
KPCM 211035Z AUTO 30003KT 10SM CLR 21/21 A3000 RMK AO2
KPCM 211015Z AUTO 28004KT 10SM CLR 21/21 A2999 RMK AO2
KPCM 210955Z AUTO 30003KT 10SM SCT026 22/22 A2999 RMK AO2
KPCM 210935Z AUTO 29004KT 10SM SCT012 SCT017 BKN026 22/22 A2999 RMK AO2
KPCM 210915Z AUTO 29004KT 10SM SCT012 BKN026 BKN033 22/22 A2999 RMK AO2
KPCM 210855Z AUTO 27004KT 10SM BKN031 22/22 A2998 RMK AO2
KPCM 210835Z AUTO 28003KT 10SM OVC031 22/22 A2998 RMK AO2
KPCM 210815Z AUTO 26003KT 10SM SCT016 BKN024 OVC031 22/22 A2998 RMK AO2
KPCM 210755Z AUTO 26003KT 10SM BKN017 OVC022 22/22 A2998 RMK AO2
KPCM 210735Z AUTO 00000KT 10SM OVC021 22/22 A2998 RMK AO2
KPCM 210715Z AUTO 00000KT 10SM OVC019 22/22 A2997 RMK AO2
KPCM 210655Z AUTO 19003KT 10SM OVC021 22/22 A2997 RMK AO2
KPCM 210635Z AUTO 00000KT 7SM OVC021 21/21 A2997 RMK AO2
KPCM 210615Z AUTO 00000KT 10SM OVC021 22/22 A2997 RMK AO2
KPCM 210555Z AUTO 00000KT 10SM OVC021 22/22 A2998 RMK AO2
KPCM 210535Z AUTO 00000KT 10SM OVC023 21/21 A2998 RMK AO2
KPCM 210515Z AUTO 00000KT 7SM BKN023 21/21 A2999 RMK AO2
KPCM 210455Z AUTO 00000KT 10SM SCT025 21/21 A2999 RMK AO2
KPCM 210435Z AUTO 00000KT 10SM CLR 21/21 A2999 RMK AO2
KPCM 210415Z AUTO 00000KT 10SM CLR 21/21 A2999 RMK AO2
KPCM 210355Z AUTO 00000KT 10SM SCT014 BKN029 22/22 A2999 RMK AO2
KPCM 210335Z AUTO 00000KT 10SM SCT016 OVC031 22/22 A2999 RMK AO2
KPCM 210315Z AUTO 00000KT 10SM OVC031 22/22 A2999 RMK AO2
KPCM 210255Z AUTO 00000KT 10SM OVC029 22/22 A2999 RMK AO2
KPCM 210235Z AUTO 00000KT 10SM SCT019 OVC029 22/22 A2999 RMK AO2
KPCM 210215Z AUTO 00000KT 10SM SCT019 BKN027 OVC033 22/22 A2999 RMK AO2